sensor_id;sensor_type;location;lat;lon;timestamp;pressure;altitude;pressure_sealevel;temperature;humidity
14253;BME280;7210;51.502;10.722;2023-05-19T00:01:13;100711.28;;;8.96;85.81
14253;BME280;7210;51.502;10.722;2023-05-19T00:03:51;100712.66;;;8.92;86.18
14253;BME280;7210;51.502;10.722;2023-05-19T00:06:24;100701.50;;;8.90;86.36
14253;BME280;7210;51.502;10.722;2023-05-19T00:08:59;100692.13;;;8.88;86.71
14253;BME280;7210;51.502;10.722;2023-05-19T00:11:28;100687.25;;;8.85;87.05
14253;BME280;7210;51.502;10.722;2023-05-19T00:13:58;100682.28;;;8.75;87.13
14253;BME280;7210;51.502;10.722;2023-05-19T00:16:31;100688.56;;;8.74;87.77
14253;BME280;7210;51.502;10.722;2023-05-19T00:19:01;100668.94;;;8.62;88.01
14253;BME280;7210;51.502;10.722;2023-05-19T00:21:42;100663.31;;;8.65;88.36
14253;BME280;7210;51.502;10.722;2023-05-19T00:24:09;100665.69;;;8.60;88.60
14253;BME280;7210;51.502;10.722;2023-05-19T00:26:36;100668.16;;;8.62;89.10
14253;BME280;7210;51.502;10.722;2023-05-19T00:29:05;100663.06;;;8.60;89.19
14253;BME280;7210;51.502;10.722;2023-05-19T00:31:33;100656.53;;;8.56;89.51
14253;BME280;7210;51.502;10.722;2023-05-19T00:34:08;100655.97;;;8.61;89.72
14253;BME280;7210;51.502;10.722;2023-05-19T00:36:35;100657.78;;;8.60;89.97
14253;BME280;7210;51.502;10.722;2023-05-19T00:39:06;100653.13;;;8.62;90.48
14253;BME280;7210;51.502;10.722;2023-05-19T00:41:36;100638.28;;;8.55;90.45
14253;BME280;7210;51.502;10.722;2023-05-19T00:44:05;100631.16;;;8.55;90.68
14253;BME280;7210;51.502;10.722;2023-05-19T00:46:32;100630.19;;;8.56;90.77
14253;BME280;7210;51.502;10.722;2023-05-19T00:48:59;100631.59;;;8.59;91.11
14253;BME280;7210;51.502;10.722;2023-05-19T00:51:44;100622.00;;;8.51;90.93
14253;BME280;7210;51.502;10.722;2023-05-19T00:54:12;100621.56;;;8.48;91.14
14253;BME280;7210;51.502;10.722;2023-05-19T00:56:40;100610.41;;;8.46;91.20
14253;BME280;7210;51.502;10.722;2023-05-19T00:59:07;100610.66;;;8.51;91.28
14253;BME280;7210;51.502;10.722;2023-05-19T01:01:54;100605.81;;;8.54;90.97
14253;BME280;7210;51.502;10.722;2023-05-19T01:04:21;100598.56;;;8.56;90.84
14253;BME280;7210;51.502;10.722;2023-05-19T01:06:51;100587.63;;;8.59;90.42
14253;BME280;7210;51.502;10.722;2023-05-19T01:09:24;100583.16;;;8.60;90.16
14253;BME280;7210;51.502;10.722;2023-05-19T01:11:54;100574.63;;;8.58;90.19
14253;BME280;7210;51.502;10.722;2023-05-19T01:14:24;100571.19;;;8.57;90.11
14253;BME280;7210;51.502;10.722;2023-05-19T01:17:00;100577.47;;;8.56;90.38
14253;BME280;7210;51.502;10.722;2023-05-19T01:19:55;100579.47;;;8.54;90.53
14253;BME280;7210;51.502;10.722;2023-05-19T01:23:11;100580.34;;;8.61;90.43
14253;BME280;7210;51.502;10.722;2023-05-19T01:26:27;100563.28;;;8.57;90.08
14253;BME280;7210;51.502;10.722;2023-05-19T01:29:30;100561.28;;;8.59;89.99
14253;BME280;7210;51.502;10.722;2023-05-19T01:32:09;100532.41;;;8.51;89.40
14253;BME280;7210;51.502;10.722;2023-05-19T01:34:43;100547.91;;;8.61;89.49
14253;BME280;7210;51.502;10.722;2023-05-19T01:37:14;100547.47;;;8.57;89.55
14253;BME280;7210;51.502;10.722;2023-05-19T01:39:44;100547.84;;;8.54;89.54
14253;BME280;7210;51.502;10.722;2023-05-19T01:42:14;100535.19;;;8.43;89.86
14253;BME280;7210;51.502;10.722;2023-05-19T01:44:43;100545.34;;;8.46;89.82
14253;BME280;7210;51.502;10.722;2023-05-19T01:47:13;100556.31;;;8.50;90.01
14253;BME280;7210;51.502;10.722;2023-05-19T01:49:42;100562.59;;;8.49;90.11
14253;BME280;7210;51.502;10.722;2023-05-19T01:52:09;100561.13;;;8.46;90.70
14253;BME280;7210;51.502;10.722;2023-05-19T01:54:37;100570.06;;;8.45;90.85
14253;BME280;7210;51.502;10.722;2023-05-19T01:57:15;100577.97;;;8.45;91.35
14253;BME280;7210;51.502;10.722;2023-05-19T02:00:00;100569.78;;;8.40;91.45
14253;BME280;7210;51.502;10.722;2023-05-19T02:02:52;100580.53;;;8.39;91.88
14253;BME280;7210;51.502;10.722;2023-05-19T02:09:05;100582.13;;;8.33;92.45
14253;BME280;7210;51.502;10.722;2023-05-19T02:11:36;100568.28;;;8.31;92.69
14253;BME280;7210;51.502;10.722;2023-05-19T02:14:17;100578.09;;;8.37;92.77
14253;BME280;7210;51.502;10.722;2023-05-19T02:19:53;100565.31;;;8.34;92.85
14253;BME280;7210;51.502;10.722;2023-05-19T02:22:21;100566.31;;;8.33;92.75
14253;BME280;7210;51.502;10.722;2023-05-19T02:24:48;100569.91;;;8.32;92.89
14253;BME280;7210;51.502;10.722;2023-05-19T02:27:16;100562.47;;;8.36;92.94
14253;BME280;7210;51.502;10.722;2023-05-19T02:29:44;100560.66;;;8.36;92.80
14253;BME280;7210;51.502;10.722;2023-05-19T02:32:11;100549.63;;;8.26;93.02
14253;BME280;7210;51.502;10.722;2023-05-19T02:34:39;100567.50;;;8.31;92.97
14253;BME280;7210;51.502;10.722;2023-05-19T02:37:08;100564.75;;;8.39;93.10
14253;BME280;7210;51.502;10.722;2023-05-19T02:39:35;100567.25;;;8.47;93.50
14253;BME280;7210;51.502;10.722;2023-05-19T02:42:03;100562.78;;;8.47;93.03
14253;BME280;7210;51.502;10.722;2023-05-19T02:44:31;100554.25;;;8.45;93.35
14253;BME280;7210;51.502;10.722;2023-05-19T02:47:13;100539.97;;;8.33;93.13
14253;BME280;7210;51.502;10.722;2023-05-19T02:49:40;100532.41;;;8.30;93.07
14253;BME280;7210;51.502;10.722;2023-05-19T02:52:14;100531.38;;;8.25;93.29
14253;BME280;7210;51.502;10.722;2023-05-19T02:54:55;100531.09;;;8.20;93.58
14253;BME280;7210;51.502;10.722;2023-05-19T02:57:22;100529.66;;;8.17;93.74
14253;BME280;7210;51.502;10.722;2023-05-19T02:59:49;100530.91;;;8.21;93.80
14253;BME280;7210;51.502;10.722;2023-05-19T03:02:17;100535.34;;;8.21;93.80
14253;BME280;7210;51.502;10.722;2023-05-19T03:04:44;100532.94;;;8.19;94.22
14253;BME280;7210;51.502;10.722;2023-05-19T03:07:11;100532.47;;;8.16;94.19
14253;BME280;7210;51.502;10.722;2023-05-19T03:09:45;100537.72;;;8.16;94.25
14253;BME280;7210;51.502;10.722;2023-05-19T03:12:12;100534.19;;;8.23;94.31
14253;BME280;7210;51.502;10.722;2023-05-19T03:14:39;100533.56;;;8.21;94.68
14253;BME280;7210;51.502;10.722;2023-05-19T03:17:07;100527.03;;;8.17;94.45
14253;BME280;7210;51.502;10.722;2023-05-19T03:19:35;100521.09;;;8.15;94.35
14253;BME280;7210;51.502;10.722;2023-05-19T03:22:02;100518.22;;;8.10;94.70
14253;BME280;7210;51.502;10.722;2023-05-19T03:24:30;100503.91;;;7.98;94.67
14253;BME280;7210;51.502;10.722;2023-05-19T03:26:59;100521.44;;;8.06;95.14
14253;BME280;7210;51.502;10.722;2023-05-19T03:29:37;100515.97;;;8.07;95.22
14253;BME280;7210;51.502;10.722;2023-05-19T03:32:05;100527.56;;;8.13;95.58
14253;BME280;7210;51.502;10.722;2023-05-19T03:34:32;100527.66;;;8.19;95.55
14253;BME280;7210;51.502;10.722;2023-05-19T03:37:00;100522.41;;;8.19;95.14
14253;BME280;7210;51.502;10.722;2023-05-19T03:39:28;100516.91;;;8.21;95.29
14253;BME280;7210;51.502;10.722;2023-05-19T03:41:55;100513.19;;;8.15;95.12
14253;BME280;7210;51.502;10.722;2023-05-19T03:44:24;100512.56;;;8.13;95.52
14253;BME280;7210;51.502;10.722;2023-05-19T03:46:55;100510.69;;;8.07;95.60
14253;BME280;7210;51.502;10.722;2023-05-19T03:49:45;100506.44;;;8.06;95.66
14253;BME280;7210;51.502;10.722;2023-05-19T03:52:43;100506.44;;;8.06;95.79
14253;BME280;7210;51.502;10.722;2023-05-19T03:55:27;100503.34;;;8.03;95.64
14253;BME280;7210;51.502;10.722;2023-05-19T03:57:55;100505.19;;;8.02;95.77
14253;BME280;7210;51.502;10.722;2023-05-19T04:00:24;100510.47;;;8.02;96.29
14253;BME280;7210;51.502;10.722;2023-05-19T04:02:51;100516.06;;;7.99;96.07
14253;BME280;7210;51.502;10.722;2023-05-19T04:05:25;100517.97;;;8.05;96.77
14253;BME280;7210;51.502;10.722;2023-05-19T04:08:01;100531.94;;;8.20;96.45
14253;BME280;7210;51.502;10.722;2023-05-19T04:10:28;100529.28;;;8.20;96.36
14253;BME280;7210;51.502;10.722;2023-05-19T04:13:01;100529.75;;;8.24;96.14
14253;BME280;7210;51.502;10.722;2023-05-19T04:15:33;100527.34;;;8.29;96.72
14253;BME280;7210;51.502;10.722;2023-05-19T04:18:00;100522.06;;;8.29;96.61
14253;BME280;7210;51.502;10.722;2023-05-19T04:20:27;100525.13;;;8.32;96.57
14253;BME280;7210;51.502;10.722;2023-05-19T04:22:54;100526.59;;;8.35;96.92
14253;BME280;7210;51.502;10.722;2023-05-19T04:25:22;100526.78;;;8.33;96.83
14253;BME280;7210;51.502;10.722;2023-05-19T04:27:55;100529.03;;;8.36;96.82
14253;BME280;7210;51.502;10.722;2023-05-19T04:30:25;100531.09;;;8.41;97.02
14253;BME280;7210;51.502;10.722;2023-05-19T04:32:55;100534.00;;;8.46;97.15
14253;BME280;7210;51.502;10.722;2023-05-19T04:35:37;100547.47;;;8.57;97.18
14253;BME280;7210;51.502;10.722;2023-05-19T04:38:05;100540.56;;;8.56;97.07
14253;BME280;7210;51.502;10.722;2023-05-19T04:40:34;100535.72;;;8.60;97.28
14253;BME280;7210;51.502;10.722;2023-05-19T04:43:02;100535.53;;;8.61;97.07
14253;BME280;7210;51.502;10.722;2023-05-19T04:45:29;100534.16;;;8.65;97.33
14253;BME280;7210;51.502;10.722;2023-05-19T04:48:01;100530.13;;;8.69;97.24
14253;BME280;7210;51.502;10.722;2023-05-19T04:50:28;100529.75;;;8.72;97.14
14253;BME280;7210;51.502;10.722;2023-05-19T04:52:57;100524.34;;;8.80;96.84
14253;BME280;7210;51.502;10.722;2023-05-19T04:55:37;100524.38;;;8.87;96.40
14253;BME280;7210;51.502;10.722;2023-05-19T04:58:05;100525.41;;;8.92;96.17
14253;BME280;7210;51.502;10.722;2023-05-19T05:00:33;100517.94;;;8.96;95.72
14253;BME280;7210;51.502;10.722;2023-05-19T05:03:05;100518.34;;;8.99;95.65
14253;BME280;7210;51.502;10.722;2023-05-19T05:05:33;100521.84;;;9.06;95.64
14253;BME280;7210;51.502;10.722;2023-05-19T05:08:26;100525.59;;;9.18;95.55
14253;BME280;7210;51.502;10.722;2023-05-19T05:10:56;100522.38;;;9.23;95.29
14253;BME280;7210;51.502;10.722;2023-05-19T05:13:32;100520.16;;;9.26;94.69
14253;BME280;7210;51.502;10.722;2023-05-19T05:16:02;100502.47;;;9.27;93.92
14253;BME280;7210;51.502;10.722;2023-05-19T05:18:34;100499.25;;;9.31;93.71
14253;BME280;7210;51.502;10.722;2023-05-19T05:21:05;100500.50;;;9.35;93.60
14253;BME280;7210;51.502;10.722;2023-05-19T05:23:35;100505.38;;;9.38;93.52
14253;BME280;7210;51.502;10.722;2023-05-19T05:26:19;100509.06;;;9.44;93.22
14253;BME280;7210;51.502;10.722;2023-05-19T05:28:50;100512.75;;;9.49;93.23
14253;BME280;7210;51.502;10.722;2023-05-19T05:31:17;100521.47;;;9.56;93.02
14253;BME280;7210;51.502;10.722;2023-05-19T05:33:46;100524.97;;;9.63;92.87
14253;BME280;7210;51.502;10.722;2023-05-19T05:36:19;100533.53;;;9.72;92.59
14253;BME280;7210;51.502;10.722;2023-05-19T05:38:49;100529.91;;;9.79;92.49
14253;BME280;7210;51.502;10.722;2023-05-19T05:41:17;100537.63;;;9.87;92.54
14253;BME280;7210;51.502;10.722;2023-05-19T05:43:49;100547.84;;;9.97;92.61
14253;BME280;7210;51.502;10.722;2023-05-19T05:46:18;100559.50;;;10.09;92.70
14253;BME280;7210;51.502;10.722;2023-05-19T05:48:47;100556.25;;;10.13;92.59
14253;BME280;7210;51.502;10.722;2023-05-19T05:51:16;100569.47;;;10.26;92.60
14253;BME280;7210;51.502;10.722;2023-05-19T05:53:47;100573.16;;;10.38;92.59
14253;BME280;7210;51.502;10.722;2023-05-19T05:56:18;100590.88;;;10.57;92.59
14253;BME280;7210;51.502;10.722;2023-05-19T05:58:49;100595.19;;;10.78;92.23
14253;BME280;7210;51.502;10.722;2023-05-19T06:01:19;100593.53;;;10.96;91.74
14253;BME280;7210;51.502;10.722;2023-05-19T06:03:48;100585.75;;;11.27;90.71
14253;BME280;7210;51.502;10.722;2023-05-19T06:06:31;100570.25;;;11.43;89.26
14253;BME280;7210;51.502;10.722;2023-05-19T06:09:00;100567.78;;;11.68;88.33
14253;BME280;7210;51.502;10.722;2023-05-19T06:11:28;100531.63;;;11.80;86.89
14253;BME280;7210;51.502;10.722;2023-05-19T06:13:57;100558.88;;;12.31;85.57
14253;BME280;7210;51.502;10.722;2023-05-19T06:16:55;100568.34;;;12.76;84.00
14253;BME280;7210;51.502;10.722;2023-05-19T06:19:24;100518.72;;;13.01;81.16
14253;BME280;7210;51.502;10.722;2023-05-19T06:21:51;100491.13;;;13.20;78.60
14253;BME280;7210;51.502;10.722;2023-05-19T06:24:19;100501.03;;;13.49;77.50
14253;BME280;7210;51.502;10.722;2023-05-19T06:27:01;100498.16;;;13.80;75.55
14253;BME280;7210;51.502;10.722;2023-05-19T06:29:28;100508.09;;;14.14;74.00
14253;BME280;7210;51.502;10.722;2023-05-19T06:32:00;100486.81;;;14.32;72.37
14253;BME280;7210;51.502;10.722;2023-05-19T06:34:30;100508.13;;;14.55;71.32
14253;BME280;7210;51.502;10.722;2023-05-19T06:36:58;100518.53;;;14.68;70.18
14253;BME280;7210;51.502;10.722;2023-05-19T06:39:27;100512.53;;;14.84;68.32
14253;BME280;7210;51.502;10.722;2023-05-19T06:41:54;100507.66;;;14.81;67.31
14253;BME280;7210;51.502;10.722;2023-05-19T06:44:43;100598.22;;;15.04;67.26
14253;BME280;7210;51.502;10.722;2023-05-19T06:47:11;100571.72;;;15.20;65.46
14253;BME280;7210;51.502;10.722;2023-05-19T06:49:40;100600.34;;;15.24;65.17
14253;BME280;7210;51.502;10.722;2023-05-19T06:52:07;100643.88;;;15.18;65.37
14253;BME280;7210;51.502;10.722;2023-05-19T06:54:35;100696.38;;;15.29;65.28
14253;BME280;7210;51.502;10.722;2023-05-19T06:57:03;100661.97;;;15.17;64.27
14253;BME280;7210;51.502;10.722;2023-05-19T06:59:31;100705.75;;;15.20;64.25
14253;BME280;7210;51.502;10.722;2023-05-19T07:02:13;100738.63;;;15.14;64.15
14253;BME280;7210;51.502;10.722;2023-05-19T07:04:42;100783.81;;;15.10;64.72
14253;BME280;7210;51.502;10.722;2023-05-19T07:07:11;100785.28;;;15.06;64.57
14253;BME280;7210;51.502;10.722;2023-05-19T07:09:38;100834.84;;;15.07;64.93
14253;BME280;7210;51.502;10.722;2023-05-19T07:12:07;100864.47;;;15.17;64.91
14253;BME280;7210;51.502;10.722;2023-05-19T07:14:43;100860.47;;;15.08;64.85
14253;BME280;7210;51.502;10.722;2023-05-19T07:17:11;100857.22;;;15.06;64.64
14253;BME280;7210;51.502;10.722;2023-05-19T07:19:44;100900.56;;;15.13;65.14
14253;BME280;7210;51.502;10.722;2023-05-19T07:22:11;100919.75;;;15.21;65.26
14253;BME280;7210;51.502;10.722;2023-05-19T07:24:38;100923.53;;;15.32;64.71
14253;BME280;7210;51.502;10.722;2023-05-19T07:27:06;100930.38;;;15.39;64.94
14253;BME280;7210;51.502;10.722;2023-05-19T07:29:33;100944.25;;;15.47;64.97
14253;BME280;7210;51.502;10.722;2023-05-19T07:32:07;100941.00;;;15.57;64.52
14253;BME280;7210;51.502;10.722;2023-05-19T07:34:37;100913.19;;;15.53;64.18
14253;BME280;7210;51.502;10.722;2023-05-19T07:37:05;100938.84;;;15.65;64.31
14253;BME280;7210;51.502;10.722;2023-05-19T07:39:34;100948.03;;;15.69;64.23
14253;BME280;7210;51.502;10.722;2023-05-19T07:42:02;100944.56;;;15.69;64.17
14253;BME280;7210;51.502;10.722;2023-05-19T07:44:37;100911.66;;;15.75;63.29
14253;BME280;7210;51.502;10.722;2023-05-19T07:47:05;100849.38;;;15.69;62.37
14253;BME280;7210;51.502;10.722;2023-05-19T07:49:32;100899.72;;;15.77;62.58
14253;BME280;7210;51.502;10.722;2023-05-19T07:52:08;100917.94;;;15.92;62.59
14253;BME280;7210;51.502;10.722;2023-05-19T07:54:44;100881.16;;;15.82;62.24
14253;BME280;7210;51.502;10.722;2023-05-19T07:57:11;100879.78;;;15.91;61.71
14253;BME280;7210;51.502;10.722;2023-05-19T07:59:39;100841.50;;;15.97;60.94
14253;BME280;7210;51.502;10.722;2023-05-19T08:02:06;100873.88;;;16.01;61.12
14253;BME280;7210;51.502;10.722;2023-05-19T08:04:37;100905.69;;;16.02;61.73
14253;BME280;7210;51.502;10.722;2023-05-19T08:07:08;100933.53;;;16.18;61.67
14253;BME280;7210;51.502;10.722;2023-05-19T08:09:36;100971.25;;;16.21;62.20
14253;BME280;7210;51.502;10.722;2023-05-19T08:12:13;100891.53;;;16.25;60.86
14253;BME280;7210;51.502;10.722;2023-05-19T08:14:43;100876.78;;;16.22;60.59
14253;BME280;7210;51.502;10.722;2023-05-19T08:17:10;100899.44;;;16.31;60.72
14253;BME280;7210;51.502;10.722;2023-05-19T08:19:38;100871.81;;;16.37;60.17
14253;BME280;7210;51.502;10.722;2023-05-19T08:22:05;100937.09;;;16.53;60.61
14253;BME280;7210;51.502;10.722;2023-05-19T08:24:33;100958.78;;;16.79;60.59
14253;BME280;7210;51.502;10.722;2023-05-19T08:27:01;100931.47;;;16.89;60.22
14253;BME280;7210;51.502;10.722;2023-05-19T08:29:37;100810.63;;;16.70;58.41
14253;BME280;7210;51.502;10.722;2023-05-19T08:32:05;100836.31;;;16.60;58.85
14253;BME280;7210;51.502;10.722;2023-05-19T08:34:32;100841.19;;;16.51;58.82
14253;BME280;7210;51.502;10.722;2023-05-19T08:37:01;100798.25;;;16.41;58.20
14253;BME280;7210;51.502;10.722;2023-05-19T08:39:32;100810.78;;;16.41;58.15
14253;BME280;7210;51.502;10.722;2023-05-19T08:42:00;100841.66;;;16.48;58.27
14253;BME280;7210;51.502;10.722;2023-05-19T08:44:31;100920.69;;;16.72;58.88
14253;BME280;7210;51.502;10.722;2023-05-19T08:47:03;100924.84;;;16.91;58.61
14253;BME280;7210;51.502;10.722;2023-05-19T08:49:36;100968.75;;;17.18;58.78
14253;BME280;7210;51.502;10.722;2023-05-19T08:52:20;101031.00;;;17.53;59.18
14253;BME280;7210;51.502;10.722;2023-05-19T08:55:03;100970.72;;;17.62;57.91
14253;BME280;7210;51.502;10.722;2023-05-19T08:57:33;100969.97;;;17.78;57.75
14253;BME280;7210;51.502;10.722;2023-05-19T09:00:01;100935.19;;;17.78;57.17
14253;BME280;7210;51.502;10.722;2023-05-19T09:02:38;100906.22;;;17.75;56.72
14253;BME280;7210;51.502;10.722;2023-05-19T09:05:07;100935.91;;;17.90;56.63
14253;BME280;7210;51.502;10.722;2023-05-19T09:07:35;100977.09;;;18.17;56.54
14253;BME280;7210;51.502;10.722;2023-05-19T09:10:06;100884.50;;;18.21;55.15
14253;BME280;7210;51.502;10.722;2023-05-19T09:12:37;100889.38;;;18.08;55.55
14253;BME280;7210;51.502;10.722;2023-05-19T09:15:08;100878.03;;;18.01;55.46
14253;BME280;7210;51.502;10.722;2023-05-19T09:17:37;100882.63;;;18.05;55.01
14253;BME280;7210;51.502;10.722;2023-05-19T09:20:19;100957.72;;;18.43;54.97
14253;BME280;7210;51.502;10.722;2023-05-19T09:22:46;100937.00;;;18.72;54.19
14253;BME280;7210;51.502;10.722;2023-05-19T09:25:26;100969.22;;;18.77;54.52
14253;BME280;7210;51.502;10.722;2023-05-19T09:27:55;100902.03;;;18.83;53.05
14253;BME280;7210;51.502;10.722;2023-05-19T09:30:23;100904.63;;;18.78;53.12
14253;BME280;7210;51.502;10.722;2023-05-19T09:32:51;100861.63;;;18.68;52.57
14253;BME280;7210;51.502;10.722;2023-05-19T09:35:18;100884.13;;;18.67;52.69
14253;BME280;7210;51.502;10.722;2023-05-19T09:37:49;100860.25;;;18.66;52.02
14253;BME280;7210;51.502;10.722;2023-05-19T09:40:16;100862.25;;;18.54;52.58
14253;BME280;7210;51.502;10.722;2023-05-19T09:42:45;100906.06;;;18.64;52.45
14253;BME280;7210;51.502;10.722;2023-05-19T09:45:13;100898.03;;;18.64;52.61
14253;BME280;7210;51.502;10.722;2023-05-19T09:47:43;100863.69;;;18.61;52.10
14253;BME280;7210;51.502;10.722;2023-05-19T09:50:11;100905.22;;;18.80;52.10
14253;BME280;7210;51.502;10.722;2023-05-19T09:52:49;100919.06;;;18.94;51.61
14253;BME280;7210;51.502;10.722;2023-05-19T09:55:19;100842.50;;;18.81;51.10
14253;BME280;7210;51.502;10.722;2023-05-19T09:57:56;100849.38;;;18.72;51.11
14253;BME280;7210;51.502;10.722;2023-05-19T10:00:26;100861.16;;;18.71;51.08
14253;BME280;7210;51.502;10.722;2023-05-19T10:02:54;100853.56;;;18.85;50.72
14253;BME280;7210;51.502;10.722;2023-05-19T10:05:23;100818.56;;;18.75;50.37
14253;BME280;7210;51.502;10.722;2023-05-19T10:07:52;100847.56;;;18.78;50.50
14253;BME280;7210;51.502;10.722;2023-05-19T10:10:21;100807.25;;;18.68;50.15
14253;BME280;7210;51.502;10.722;2023-05-19T10:12:48;100767.41;;;18.55;49.59
14253;BME280;7210;51.502;10.722;2023-05-19T10:15:18;100781.56;;;18.50;49.92
14253;BME280;7210;51.502;10.722;2023-05-19T10:17:45;100807.50;;;18.66;49.80
14253;BME280;7210;51.502;10.722;2023-05-19T10:20:15;100822.69;;;18.82;49.59
14253;BME280;7210;51.502;10.722;2023-05-19T10:22:45;100873.81;;;18.97;49.87
14253;BME280;7210;51.502;10.722;2023-05-19T10:25:19;100815.13;;;19.01;49.04
14253;BME280;7210;51.502;10.722;2023-05-19T10:28:00;100773.47;;;18.93;48.59
14253;BME280;7210;51.502;10.722;2023-05-19T10:30:42;100897.75;;;19.25;49.50
14253;BME280;7210;51.502;10.722;2023-05-19T10:33:14;100880.88;;;19.51;48.87
14253;BME280;7210;51.502;10.722;2023-05-19T10:36:14;100852.06;;;19.68;48.30
14253;BME280;7210;51.502;10.722;2023-05-19T10:38:59;100822.22;;;19.64;47.95
14253;BME280;7210;51.502;10.722;2023-05-19T10:41:39;100842.47;;;19.77;47.95
14253;BME280;7210;51.502;10.722;2023-05-19T10:44:22;100964.25;;;20.19;48.32
14253;BME280;7210;51.502;10.722;2023-05-19T10:46:50;100987.69;;;20.60;48.16
14253;BME280;7210;51.502;10.722;2023-05-19T10:49:21;100874.78;;;20.60;46.55
14253;BME280;7210;51.502;10.722;2023-05-19T10:51:54;100909.88;;;20.85;46.58
14253;BME280;7210;51.502;10.722;2023-05-19T10:54:41;100814.75;;;20.96;44.93
14253;BME280;7210;51.502;10.722;2023-05-19T10:57:13;100930.75;;;21.14;46.11
14253;BME280;7210;51.502;10.722;2023-05-19T10:59:55;100919.00;;;21.45;45.15
14253;BME280;7210;51.502;10.722;2023-05-19T11:02:50;100838.00;;;21.47;44.49
14253;BME280;7210;51.502;10.722;2023-05-19T11:05:29;100794.09;;;21.26;44.28
14253;BME280;7210;51.502;10.722;2023-05-19T11:07:58;100821.28;;;21.40;43.96
14253;BME280;7210;51.502;10.722;2023-05-19T11:10:27;100882.78;;;21.83;43.74
14253;BME280;7210;51.502;10.722;2023-05-19T11:12:56;100814.88;;;21.86;43.01
14253;BME280;7210;51.502;10.722;2023-05-19T11:15:26;100838.59;;;21.94;43.14
14253;BME280;7210;51.502;10.722;2023-05-19T11:18:00;100827.78;;;22.09;42.80
14253;BME280;7210;51.502;10.722;2023-05-19T11:20:31;100831.84;;;22.16;42.64
14253;BME280;7210;51.502;10.722;2023-05-19T11:23:07;100859.56;;;22.27;42.56
14253;BME280;7210;51.502;10.722;2023-05-19T11:25:45;100755.06;;;21.99;42.36
14253;BME280;7210;51.502;10.722;2023-05-19T11:28:16;100852.03;;;22.24;42.93
14253;BME280;7210;51.502;10.722;2023-05-19T11:30:46;100865.78;;;22.32;42.97
14253;BME280;7210;51.502;10.722;2023-05-19T11:33:16;100879.22;;;22.52;42.55
14253;BME280;7210;51.502;10.722;2023-05-19T11:35:50;100830.97;;;22.51;42.15
14253;BME280;7210;51.502;10.722;2023-05-19T11:38:19;100856.25;;;22.65;42.35
14253;BME280;7210;51.502;10.722;2023-05-19T11:40:51;100792.16;;;22.37;42.47
14253;BME280;7210;51.502;10.722;2023-05-19T11:43:31;100912.38;;;22.63;43.37
14253;BME280;7210;51.502;10.722;2023-05-19T11:45:59;100874.66;;;22.53;43.21
14253;BME280;7210;51.502;10.722;2023-05-19T11:48:29;100646.28;;;21.85;41.77
14253;BME280;7210;51.502;10.722;2023-05-19T11:51:07;100627.50;;;21.45;42.15
14253;BME280;7210;51.502;10.722;2023-05-19T11:53:43;100699.66;;;21.38;43.35
14253;BME280;7210;51.502;10.722;2023-05-19T11:56:11;100695.84;;;21.49;42.22
14253;BME280;7210;51.502;10.722;2023-05-19T11:58:52;100685.13;;;21.29;43.27
14253;BME280;7210;51.502;10.722;2023-05-19T12:01:23;100732.47;;;21.25;43.95
14253;BME280;7210;51.502;10.722;2023-05-19T12:03:53;100806.25;;;21.44;44.04
14253;BME280;7210;51.502;10.722;2023-05-19T12:06:20;100767.47;;;21.40;43.98
14253;BME280;7210;51.502;10.722;2023-05-19T12:08:50;100746.47;;;21.27;43.82
14253;BME280;7210;51.502;10.722;2023-05-19T12:11:18;100709.06;;;21.10;43.71
14253;BME280;7210;51.502;10.722;2023-05-19T12:13:46;100709.59;;;21.02;43.83
14253;BME280;7210;51.502;10.722;2023-05-19T12:16:18;100738.66;;;21.15;43.71
14253;BME280;7210;51.502;10.722;2023-05-19T12:18:45;100762.91;;;21.40;43.04
14253;BME280;7210;51.502;10.722;2023-05-19T12:21:14;100844.00;;;21.74;43.46
14253;BME280;7210;51.502;10.722;2023-05-19T12:23:42;100785.00;;;21.82;42.73
14253;BME280;7210;51.502;10.722;2023-05-19T12:26:10;100758.88;;;21.58;43.66
14253;BME280;7210;51.502;10.722;2023-05-19T12:28:37;100848.81;;;21.77;43.92
14253;BME280;7210;51.502;10.722;2023-05-19T12:31:05;100701.50;;;21.62;42.39
14253;BME280;7210;51.502;10.722;2023-05-19T12:33:32;100747.03;;;21.74;42.66
14253;BME280;7210;51.502;10.722;2023-05-19T12:36:00;100719.56;;;21.77;42.63
14253;BME280;7210;51.502;10.722;2023-05-19T12:38:39;100762.06;;;22.05;42.22
14253;BME280;7210;51.502;10.722;2023-05-19T12:41:13;100850.13;;;22.34;42.30
14253;BME280;7210;51.502;10.722;2023-05-19T12:43:41;100812.94;;;22.21;42.64
14253;BME280;7210;51.502;10.722;2023-05-19T12:46:09;100713.66;;;21.75;42.87
14253;BME280;7210;51.502;10.722;2023-05-19T12:48:39;100770.19;;;21.70;43.34
14253;BME280;7210;51.502;10.722;2023-05-19T12:51:07;100733.00;;;21.62;43.20
14253;BME280;7210;51.502;10.722;2023-05-19T12:53:35;100739.75;;;21.79;42.60
14253;BME280;7210;51.502;10.722;2023-05-19T12:56:11;100763.72;;;21.91;42.78
14253;BME280;7210;51.502;10.722;2023-05-19T12:58:43;100796.84;;;22.01;43.02
14253;BME280;7210;51.502;10.722;2023-05-19T13:01:16;100847.72;;;22.23;43.37
14253;BME280;7210;51.502;10.722;2023-05-19T13:03:55;100815.88;;;22.40;42.51
14253;BME280;7210;51.502;10.722;2023-05-19T13:06:25;100820.69;;;22.63;42.21
14253;BME280;7210;51.502;10.722;2023-05-19T13:08:52;100792.81;;;22.77;41.57
14253;BME280;7210;51.502;10.722;2023-05-19T13:11:39;100703.66;;;22.59;41.14
14253;BME280;7210;51.502;10.722;2023-05-19T13:14:13;100661.75;;;22.18;41.26
14253;BME280;7210;51.502;10.722;2023-05-19T13:16:42;100617.16;;;21.97;41.03
14253;BME280;7210;51.502;10.722;2023-05-19T13:19:09;100729.97;;;22.13;42.05
14253;BME280;7210;51.502;10.722;2023-05-19T13:21:37;100709.75;;;22.11;42.29
14253;BME280;7210;51.502;10.722;2023-05-19T13:24:24;100646.78;;;21.92;41.76
14253;BME280;7210;51.502;10.722;2023-05-19T13:26:53;100622.09;;;21.70;41.76